createdAt,value
2023-05-05T00:02:23.777Z,11.70
2023-05-05T00:04:50.192Z,11.69
2023-05-05T00:07:16.807Z,11.67
2023-05-05T00:09:43.179Z,11.66
2023-05-05T00:12:09.698Z,11.65
2023-05-05T00:14:36.244Z,11.63
2023-05-05T00:17:03.437Z,11.61
2023-05-05T00:19:29.848Z,11.58
2023-05-05T00:21:56.389Z,11.55
2023-05-05T00:24:22.909Z,11.54
2023-05-05T00:26:49.285Z,11.53
2023-05-05T00:29:15.639Z,11.52
2023-05-05T00:31:42.175Z,11.50
2023-05-05T00:34:08.694Z,11.48
2023-05-05T00:36:35.308Z,11.45
2023-05-05T00:39:01.760Z,11.41
2023-05-05T00:41:28.422Z,11.39
2023-05-05T00:43:54.799Z,11.36
2023-05-05T00:46:26.810Z,11.32
2023-05-05T00:48:53.935Z,11.30
2023-05-05T00:51:21.541Z,11.26
2023-05-05T00:53:48.399Z,11.21
2023-05-05T00:56:19.210Z,11.17
2023-05-05T00:58:46.180Z,11.13
2023-05-05T01:01:13.178Z,11.07
2023-05-05T01:03:43.342Z,11.02
2023-05-05T01:06:19.466Z,10.99
2023-05-05T01:09:01.193Z,10.96
2023-05-05T01:11:52.956Z,10.96
2023-05-05T01:14:26.485Z,10.96
2023-05-05T01:16:59.596Z,10.95
2023-05-05T01:19:51.041Z,10.95
2023-05-05T01:22:19.917Z,10.95
2023-05-05T01:25:14.124Z,10.96
2023-05-05T01:28:16.744Z,10.96
2023-05-05T01:30:47.774Z,10.97
2023-05-05T01:33:19.967Z,10.96
2023-05-05T01:35:50.715Z,10.95
2023-05-05T01:38:21.591Z,10.93
2023-05-05T01:41:02.518Z,10.93
2023-05-05T01:43:30.456Z,10.91
2023-05-05T01:45:57.896Z,10.90
2023-05-05T01:48:25.750Z,10.89
2023-05-05T01:50:52.791Z,10.87
2023-05-05T01:53:20.554Z,10.86
2023-05-05T01:55:49.310Z,10.85
2023-05-05T01:58:16.192Z,10.83
2023-05-05T02:00:43.902Z,10.83
2023-05-05T02:03:11.816Z,10.82
2023-05-05T02:05:39.191Z,10.80
2023-05-05T02:08:06.160Z,10.79
2023-05-05T02:10:32.982Z,10.75
2023-05-05T02:13:02.195Z,10.71
2023-05-05T02:15:28.994Z,10.66
2023-05-05T02:17:56.478Z,10.63
2023-05-05T02:20:24.242Z,10.60
2023-05-05T02:22:50.644Z,10.58
2023-05-05T02:25:17.359Z,10.56
2023-05-05T02:27:46.023Z,10.54
2023-05-05T02:30:14.765Z,10.52
2023-05-05T02:32:54.748Z,10.52
2023-05-05T02:35:26.191Z,10.50
2023-05-05T02:38:02.205Z,10.48
2023-05-05T02:40:33.866Z,10.46
2023-05-05T02:43:05.937Z,10.45
2023-05-05T02:45:33.377Z,10.44
2023-05-05T02:48:03.956Z,10.43
2023-05-05T02:50:32.460Z,10.41
2023-05-05T02:53:09.423Z,10.40
2023-05-05T02:55:45.001Z,10.40
2023-05-05T02:58:23.085Z,10.39
2023-05-05T03:00:50.418Z,10.38
2023-05-05T03:03:46.756Z,10.38
2023-05-05T03:06:17.252Z,10.40
2023-05-05T03:09:08.381Z,10.42
2023-05-05T03:11:40.274Z,10.44
2023-05-05T03:14:10.776Z,10.45
2023-05-05T03:16:39.239Z,10.46
2023-05-05T03:19:08.209Z,10.47
2023-05-05T03:21:35.676Z,10.48
2023-05-05T03:24:15.627Z,10.49
2023-05-05T03:26:43.789Z,10.50
2023-05-05T03:29:11.298Z,10.52
2023-05-05T03:31:39.329Z,10.51
2023-05-05T03:34:06.542Z,10.51
2023-05-05T03:36:38.274Z,10.50
2023-05-05T03:39:05.301Z,10.49
2023-05-05T03:41:33.148Z,10.48
2023-05-05T03:44:00.021Z,10.49
2023-05-05T03:46:26.737Z,10.50
2023-05-05T03:48:56.329Z,10.51
2023-05-05T03:51:23.960Z,10.53
2023-05-05T03:53:51.225Z,10.55
2023-05-05T03:56:17.997Z,10.58
2023-05-05T03:58:44.437Z,10.59
2023-05-05T04:01:11.125Z,10.60
2023-05-05T04:03:38.691Z,10.62
2023-05-05T04:06:05.419Z,10.64
2023-05-05T04:08:32.106Z,10.66
2023-05-05T04:11:01.476Z,10.69
2023-05-05T04:13:28.887Z,10.71
2023-05-05T04:15:56.061Z,10.72
2023-05-05T04:18:22.754Z,10.75
2023-05-05T04:20:50.097Z,10.76
2023-05-05T04:23:16.789Z,10.77
2023-05-05T04:25:44.363Z,10.80
2023-05-05T04:28:11.425Z,10.83
2023-05-05T04:30:38.037Z,10.86
2023-05-05T04:33:04.572Z,10.91
2023-05-05T04:35:31.428Z,10.95
2023-05-05T04:37:58.185Z,11.00
2023-05-05T04:40:25.628Z,11.06
2023-05-05T04:42:52.894Z,11.12
2023-05-05T04:45:19.358Z,11.21
2023-05-05T04:47:46.799Z,11.33
2023-05-05T04:50:13.765Z,11.44
2023-05-05T04:52:40.195Z,11.54
2023-05-05T04:55:08.391Z,11.67
2023-05-05T04:57:35.107Z,11.80
2023-05-05T05:00:04.083Z,11.91
2023-05-05T05:02:30.527Z,12.01
2023-05-05T05:04:57.023Z,12.08
2023-05-05T05:07:23.726Z,12.13
2023-05-05T05:09:50.305Z,12.21
2023-05-05T05:12:16.710Z,12.30
2023-05-05T05:14:43.227Z,12.40
2023-05-05T05:17:09.659Z,12.50
2023-05-05T05:19:36.115Z,12.55
2023-05-05T05:22:03.420Z,12.60
2023-05-05T05:24:30.540Z,12.65
2023-05-05T05:26:57.987Z,12.71
2023-05-05T05:29:24.746Z,12.77
2023-05-05T05:31:51.183Z,12.83
2023-05-05T05:34:17.583Z,12.91
2023-05-05T05:36:44.514Z,12.98
2023-05-05T05:39:10.965Z,13.04
2023-05-05T05:41:37.660Z,13.10
2023-05-05T05:44:04.623Z,13.17
2023-05-05T05:46:31.407Z,13.24
2023-05-05T05:48:57.897Z,13.32
2023-05-05T05:51:25.744Z,13.41
2023-05-05T05:53:52.482Z,13.53
2023-05-05T05:56:19.324Z,13.65
2023-05-05T05:58:47.935Z,13.77
2023-05-05T06:01:15.304Z,13.88
2023-05-05T06:03:42.116Z,14.00
2023-05-05T06:06:08.727Z,14.11
2023-05-05T06:08:35.395Z,14.20
2023-05-05T06:11:02.234Z,14.27
2023-05-05T06:13:28.964Z,14.34
2023-05-05T06:15:55.540Z,14.45
2023-05-05T06:18:22.553Z,14.59
2023-05-05T06:20:50.216Z,14.74
2023-05-05T06:23:17.418Z,14.84
2023-05-05T06:25:48.063Z,14.93
2023-05-05T06:28:14.437Z,15.03
2023-05-05T06:30:41.325Z,15.14
2023-05-05T06:33:07.892Z,15.26
2023-05-05T06:35:34.457Z,15.37
2023-05-05T06:38:00.907Z,15.43
2023-05-05T06:40:27.495Z,15.51
2023-05-05T06:42:53.870Z,15.60
2023-05-05T06:45:23.180Z,15.68
2023-05-05T06:47:49.771Z,15.78
2023-05-05T06:50:16.364Z,15.90
2023-05-05T06:52:42.764Z,16.08
2023-05-05T06:55:09.536Z,16.23
2023-05-05T06:57:36.024Z,16.36
2023-05-05T07:00:05.107Z,16.49
2023-05-05T07:02:33.165Z,16.64
2023-05-05T07:04:59.577Z,16.82
2023-05-05T07:07:26.393Z,16.94
2023-05-05T07:09:52.740Z,17.03
2023-05-05T07:12:19.220Z,17.07
2023-05-05T07:14:46.208Z,17.12
2023-05-05T07:17:12.728Z,17.22
2023-05-05T07:19:39.143Z,17.32
2023-05-05T07:22:05.633Z,17.44
2023-05-05T07:24:32.094Z,17.55
2023-05-05T07:26:58.609Z,17.68
2023-05-05T07:29:24.949Z,17.81
2023-05-05T07:31:51.496Z,17.88
2023-05-05T07:34:17.915Z,17.98
2023-05-05T07:36:44.642Z,18.11
2023-05-05T07:39:14.253Z,18.25
2023-05-05T07:41:41.644Z,18.44
2023-05-05T07:44:08.117Z,18.62
2023-05-05T07:46:34.548Z,18.80
2023-05-05T07:49:00.944Z,18.99
2023-05-05T07:51:27.395Z,19.14
2023-05-05T07:53:55.071Z,19.21
2023-05-05T07:56:21.924Z,19.28
2023-05-05T07:58:48.478Z,19.37
2023-05-05T13:02:56.000Z,29.76
2023-05-05T13:05:32.530Z,29.82
2023-05-05T13:07:59.368Z,29.85
2023-05-05T13:10:27.381Z,29.95
2023-05-05T13:12:57.801Z,30.04
2023-05-05T13:15:25.280Z,30.07
2023-05-05T13:17:59.619Z,30.13
2023-05-05T13:20:26.282Z,30.22
2023-05-05T13:22:52.705Z,30.34
2023-05-05T13:25:19.127Z,30.38
2023-05-05T13:27:45.620Z,30.47
2023-05-05T13:30:12.656Z,30.62
2023-05-05T13:32:39.168Z,30.82
2023-05-05T13:35:06.338Z,30.96
2023-05-05T13:37:32.877Z,31.08
2023-05-05T13:39:59.717Z,31.14
2023-05-05T13:42:26.043Z,31.07
2023-05-05T13:44:53.112Z,30.99
2023-05-05T13:47:19.681Z,30.97
2023-05-05T13:49:48.216Z,31.07
2023-05-05T13:52:18.606Z,31.23
2023-05-05T13:54:46.233Z,31.33
2023-05-05T13:57:19.793Z,31.26
2023-05-05T13:59:50.581Z,31.23
2023-05-05T14:02:19.867Z,31.27
2023-05-05T14:04:50.740Z,31.28
2023-05-05T14:07:23.197Z,31.32
2023-05-05T14:09:49.982Z,31.40
2023-05-05T14:12:16.390Z,31.59
2023-05-05T14:14:42.989Z,31.77
2023-05-05T14:17:09.498Z,31.91
2023-05-05T14:19:36.383Z,31.98
2023-05-05T14:22:03.117Z,31.99
2023-05-05T14:24:29.494Z,31.94
2023-05-05T14:26:56.242Z,31.85
2023-05-05T14:29:22.687Z,31.80
2023-05-05T14:31:49.137Z,31.90
2023-05-05T14:34:15.535Z,32.13
2023-05-05T14:36:41.891Z,32.35
2023-05-05T14:39:08.422Z,32.58
2023-05-05T14:41:34.875Z,32.75
2023-05-05T14:44:01.562Z,32.82
2023-05-05T14:46:27.988Z,32.80
2023-05-05T14:48:54.497Z,32.79
2023-05-05T14:51:20.865Z,32.96
2023-05-05T14:53:47.252Z,33.31
2023-05-05T14:56:13.651Z,33.79
2023-05-05T14:58:40.130Z,34.37
2023-05-05T15:01:06.829Z,34.79
2023-05-05T15:03:33.580Z,34.81
2023-05-05T15:06:00.306Z,34.49
2023-05-05T15:08:26.925Z,34.04
2023-05-05T15:10:53.269Z,33.41
2023-05-05T15:13:19.938Z,32.77
2023-05-05T15:15:46.382Z,32.10
2023-05-05T15:18:12.735Z,31.57
2023-05-05T15:20:39.229Z,31.13
2023-05-05T15:23:05.717Z,30.87
2023-05-05T15:25:32.076Z,30.82
2023-05-05T15:28:00.169Z,30.96
2023-05-05T15:30:27.202Z,31.49
2023-05-05T15:32:53.690Z,32.22
2023-05-05T15:35:20.323Z,32.92
2023-05-05T15:37:46.782Z,33.18
2023-05-05T15:40:13.221Z,32.85
2023-05-05T15:42:39.664Z,32.34
2023-05-05T15:45:07.576Z,32.11
2023-05-05T15:47:34.275Z,32.18
2023-05-05T15:50:00.727Z,32.50
2023-05-05T15:52:27.158Z,32.79
2023-05-05T15:54:53.564Z,32.69
2023-05-05T15:57:20.730Z,32.62
2023-05-05T15:59:50.728Z,33.19
2023-05-05T16:02:17.715Z,33.75
2023-05-05T16:04:44.805Z,33.69
2023-05-05T16:07:11.524Z,33.33
2023-05-05T16:09:38.100Z,33.31
2023-05-05T16:12:05.428Z,33.73
2023-05-05T16:14:32.095Z,34.31
2023-05-05T16:16:58.817Z,34.58
2023-05-05T16:19:28.209Z,34.66
2023-05-05T16:21:54.576Z,34.47
2023-05-05T16:24:21.212Z,34.28
2023-05-05T16:26:47.837Z,34.20
2023-05-05T16:29:14.370Z,34.33
2023-05-05T16:31:40.897Z,34.50
2023-05-05T16:34:07.493Z,34.69
2023-05-05T16:36:33.961Z,34.83
2023-05-05T16:39:00.289Z,34.77
2023-05-05T16:41:26.965Z,34.24
2023-05-05T16:43:53.501Z,33.63
2023-05-05T16:46:20.357Z,32.96
2023-05-05T16:48:47.071Z,32.16
2023-05-05T16:51:13.466Z,31.28
2023-05-05T16:53:40.074Z,30.36
2023-05-05T16:56:06.736Z,29.56
2023-05-05T16:58:33.079Z,28.78
2023-05-05T17:01:01.334Z,28.07
2023-05-05T17:03:27.707Z,27.42
2023-05-05T17:05:54.657Z,26.88
2023-05-05T17:08:21.333Z,26.45
2023-05-05T17:10:47.854Z,26.06
2023-05-05T17:13:14.462Z,25.65
2023-05-05T17:15:42.920Z,25.27
2023-05-05T17:18:09.837Z,24.89
2023-05-05T17:20:36.442Z,24.60
2023-05-05T17:23:03.003Z,24.35
2023-05-05T17:25:29.557Z,24.12
2023-05-05T17:27:56.318Z,23.90
2023-05-05T17:30:23.488Z,23.68
2023-05-05T17:32:49.903Z,23.46
2023-05-05T17:35:16.287Z,23.24
2023-05-05T17:37:42.670Z,23.00
2023-05-05T17:40:09.513Z,22.79
2023-05-05T17:42:35.948Z,22.61
2023-05-05T17:45:02.775Z,22.46
2023-05-05T17:47:30.609Z,22.33
2023-05-05T17:49:57.052Z,22.20
2023-05-05T17:52:23.869Z,22.02
2023-05-05T17:54:50.392Z,21.86
2023-05-05T17:57:20.073Z,21.74
2023-05-05T17:59:48.910Z,21.65
2023-05-05T18:02:15.876Z,21.55
2023-05-05T18:04:42.733Z,21.44
2023-05-05T18:07:11.344Z,21.33
2023-05-05T18:09:38.412Z,21.23
2023-05-05T18:12:05.235Z,21.12
2023-05-05T18:14:31.702Z,21.03
2023-05-05T18:16:58.070Z,20.92
2023-05-05T18:19:24.468Z,20.81
2023-05-05T18:21:52.141Z,20.71
2023-05-05T18:24:20.498Z,20.59
2023-05-05T18:26:49.482Z,20.46
2023-05-05T18:29:17.026Z,20.32
2023-05-05T18:31:44.671Z,20.17
2023-05-05T18:34:11.481Z,20.03
2023-05-05T18:36:37.834Z,19.89
2023-05-05T18:39:04.306Z,19.74
2023-05-05T18:41:30.725Z,19.59
2023-05-05T18:43:59.635Z,19.47
2023-05-05T18:46:26.186Z,19.35
2023-05-05T18:48:52.792Z,19.24
2023-05-05T18:51:19.252Z,19.13
2023-05-05T18:53:45.652Z,19.02
2023-05-05T18:56:12.130Z,18.91
2023-05-05T18:58:38.694Z,18.80
2023-05-05T19:01:05.501Z,18.68
2023-05-05T19:03:33.735Z,18.58
2023-05-05T19:06:05.228Z,18.55
2023-05-05T19:08:32.145Z,18.50
2023-05-05T19:10:58.488Z,18.49
2023-05-05T19:13:25.149Z,18.44
2023-05-05T19:15:53.316Z,18.37
2023-05-05T19:18:19.719Z,18.31
2023-05-05T19:20:46.073Z,18.27
2023-05-05T19:23:12.542Z,18.22
2023-05-05T19:25:39.480Z,18.17
2023-05-05T19:28:05.986Z,18.10
2023-05-05T19:30:32.421Z,18.02
2023-05-05T19:32:58.874Z,18.00
2023-05-05T19:35:25.494Z,17.96
2023-05-05T19:37:51.830Z,17.91
2023-05-05T19:40:18.277Z,17.83
2023-05-05T19:42:44.627Z,17.72
2023-05-05T19:45:11.149Z,17.62
2023-05-05T19:47:37.482Z,17.51
2023-05-05T19:50:04.530Z,17.42
2023-05-05T19:52:31.025Z,17.33
2023-05-05T19:54:58.079Z,17.26
2023-05-05T19:57:24.501Z,17.19
2023-05-05T19:59:51.024Z,17.11
2023-05-05T20:02:17.720Z,17.04
2023-05-05T20:04:44.167Z,16.96
2023-05-05T20:07:10.566Z,16.89
2023-05-05T20:09:37.137Z,16.81
2023-05-05T20:12:03.931Z,16.75
2023-05-05T20:14:30.974Z,16.69
2023-05-05T20:16:57.476Z,16.61
2023-05-05T20:19:24.001Z,16.52
2023-05-05T20:21:50.447Z,16.42
2023-05-05T20:24:16.879Z,16.32
2023-05-05T20:26:43.311Z,16.26
2023-05-05T20:29:09.716Z,16.19
2023-05-05T20:31:36.726Z,16.11
2023-05-05T20:34:03.245Z,16.03
2023-05-05T20:36:29.686Z,15.95
2023-05-05T20:38:56.058Z,15.89
2023-05-05T20:41:22.545Z,15.84
2023-05-05T20:43:48.982Z,15.77
2023-05-05T20:46:15.739Z,15.71
2023-05-05T20:48:43.142Z,15.67
2023-05-05T20:51:09.693Z,15.63
2023-05-05T20:53:36.121Z,15.59
2023-05-05T20:56:02.977Z,15.55
2023-05-05T20:58:29.522Z,15.50
2023-05-05T21:00:56.188Z,15.47
2023-05-05T21:03:22.771Z,15.44
2023-05-05T21:05:49.302Z,15.42
2023-05-05T21:08:15.656Z,15.38
2023-05-05T21:10:42.058Z,15.33
2023-05-05T21:13:08.534Z,15.27
2023-05-05T21:15:38.286Z,15.21
2023-05-05T21:18:05.901Z,15.15
2023-05-05T21:20:32.454Z,15.09
2023-05-05T21:22:59.062Z,15.04
2023-05-05T21:25:26.080Z,15.01
2023-05-05T21:27:52.593Z,14.98
2023-05-05T21:30:19.188Z,14.94
2023-05-05T21:32:45.648Z,14.90
2023-05-05T21:35:12.539Z,14.86
2023-05-05T21:37:39.550Z,14.82
2023-05-05T21:40:13.005Z,14.78
2023-05-05T21:42:40.793Z,14.74
2023-05-05T21:45:08.084Z,14.71
2023-05-05T21:47:35.030Z,14.69
2023-05-05T21:50:01.542Z,14.67
2023-05-05T21:52:27.974Z,14.62
2023-05-05T21:54:54.410Z,14.57
2023-05-05T21:57:20.766Z,14.53
2023-05-05T21:59:47.170Z,14.50
2023-05-05T22:02:13.583Z,14.48
2023-05-05T22:04:41.413Z,14.47
2023-05-05T22:07:08.030Z,14.45
2023-05-05T22:09:34.525Z,14.43
2023-05-05T22:12:01.778Z,14.41
2023-05-05T22:14:28.077Z,14.39
2023-05-05T22:16:54.664Z,14.35
2023-05-05T22:19:21.366Z,14.31
2023-05-05T22:21:47.694Z,14.28
2023-05-05T22:24:14.439Z,14.28
2023-05-05T22:26:42.463Z,14.27
2023-05-05T22:29:10.073Z,14.26
2023-05-05T22:31:36.999Z,14.27
2023-05-05T22:34:03.583Z,14.25
2023-05-05T22:36:30.722Z,14.24
2023-05-05T22:38:57.190Z,14.25
2023-05-05T22:41:24.199Z,14.25
2023-05-05T22:43:51.131Z,14.23
2023-05-05T22:46:17.573Z,14.21
2023-05-05T22:48:43.901Z,14.21
2023-05-05T22:51:10.800Z,14.19
2023-05-05T22:53:38.171Z,14.18
2023-05-05T22:56:05.609Z,14.16
2023-05-05T22:58:32.053Z,14.15
2023-05-05T23:00:58.435Z,14.13
2023-05-05T23:03:24.781Z,14.12
2023-05-05T23:05:51.403Z,14.11
2023-05-05T23:08:17.860Z,14.10
2023-05-05T23:10:44.288Z,14.09
2023-05-05T23:13:10.836Z,14.05
2023-05-05T23:15:37.331Z,14.04
2023-05-05T23:18:03.740Z,14.03
2023-05-05T23:20:30.224Z,14.02
2023-05-05T23:22:56.694Z,14.01
2023-05-05T23:25:23.054Z,14.01
2023-05-05T23:27:49.985Z,13.99
2023-05-05T23:30:16.588Z,13.96
2023-05-05T23:32:44.191Z,13.92
2023-05-05T23:35:11.179Z,13.89
2023-05-05T23:37:37.800Z,13.87
2023-05-05T23:40:06.207Z,13.83
2023-05-05T23:42:32.766Z,13.79
2023-05-05T23:45:00.244Z,13.78
2023-05-05T23:47:27.175Z,13.76
2023-05-05T23:49:53.505Z,13.72
2023-05-05T23:52:20.287Z,13.67
2023-05-05T23:54:46.691Z,13.64
2023-05-05T23:57:13.065Z,13.60
2023-05-05T23:59:39.936Z,13.56
